createdAt,value
2018-05-09T00:00:12.791Z,9.87
2018-05-09T00:02:40.369Z,6.10
2018-05-09T00:05:07.913Z,6.43
2018-05-09T00:07:35.492Z,5.97
2018-05-09T00:10:03.075Z,5.20
2018-05-09T00:12:30.658Z,13.97
2018-05-09T00:14:58.219Z,7.53
2018-05-09T00:17:25.744Z,9.50
2018-05-09T00:19:53.353Z,7.40
2018-05-09T00:22:21.725Z,8.80
2018-05-09T00:24:50.142Z,11.47
2018-05-09T00:27:17.677Z,8.47
2018-05-09T00:29:45.255Z,9.50
2018-05-09T00:32:12.796Z,12.43
2018-05-09T00:34:41.126Z,7.83
2018-05-09T00:37:08.669Z,11.30
2018-05-09T00:39:36.438Z,15.13
2018-05-09T00:42:04.506Z,10.67
2018-05-09T00:44:32.075Z,10.83
2018-05-09T00:46:59.660Z,11.30
2018-05-09T00:49:27.248Z,12.97
2018-05-09T00:51:54.860Z,12.17
2018-05-09T00:54:34.353Z,9.27
2018-05-09T00:57:02.694Z,8.80
2018-05-09T00:59:30.326Z,11.87
2018-05-09T01:59:04.479Z,8.07
2018-05-09T02:01:32.809Z,5.13
2018-05-09T02:04:00.393Z,5.10
2018-05-09T02:06:27.973Z,9.73
2018-05-09T02:08:55.537Z,7.00
2018-05-09T02:11:23.872Z,7.13
2018-05-09T02:13:51.452Z,8.93
2018-05-09T02:16:19.015Z,6.47
2018-05-09T02:18:46.950Z,11.20
2018-05-09T02:21:14.528Z,9.70
2018-05-09T02:23:42.070Z,8.60
2018-05-09T02:26:09.651Z,9.57
2018-05-09T02:28:37.190Z,5.57
2018-05-09T02:31:04.921Z,7.47
2018-05-09T02:33:33.179Z,7.00
2018-05-09T02:36:00.760Z,7.13
2018-05-09T02:38:28.312Z,6.23
2018-05-09T02:40:55.844Z,5.07
2018-05-09T02:43:23.424Z,6.50
2018-05-09T02:45:51.006Z,5.90
2018-05-09T02:48:18.544Z,5.93
2018-05-09T02:50:47.140Z,6.83
2018-05-09T02:53:14.733Z,6.63
2018-05-09T02:55:42.293Z,5.97
2018-05-09T02:58:09.859Z,7.40
2018-05-09T03:00:37.417Z,6.40
2018-05-09T03:03:05.818Z,11.20
2018-05-09T03:05:33.367Z,8.20
2018-05-09T03:08:00.924Z,6.57
2018-05-09T03:10:28.494Z,6.43
2018-05-09T03:12:56.031Z,5.40
2018-05-09T03:15:23.601Z,5.73
2018-05-09T03:17:51.145Z,8.33
2018-05-09T03:20:18.706Z,7.67
2018-05-09T03:22:46.279Z,9.93
2018-05-09T03:25:13.859Z,10.73
2018-05-09T03:27:41.390Z,5.27
2018-05-09T03:30:08.959Z,7.07
2018-05-09T03:32:36.532Z,8.13
2018-05-09T03:35:04.151Z,7.77
2018-05-09T03:37:31.701Z,6.70
2018-05-09T03:39:59.270Z,11.57
2018-05-09T03:42:26.829Z,8.30
2018-05-09T03:44:54.436Z,10.27
2018-05-09T03:47:21.954Z,8.30
2018-05-09T03:49:49.531Z,9.57
2018-05-09T03:52:17.069Z,7.37
2018-05-09T03:54:44.642Z,7.53
2018-05-09T03:57:12.193Z,8.63
2018-05-09T03:59:39.750Z,10.07
2018-05-09T04:02:19.051Z,7.43
2018-05-09T04:08:00.287Z,9.17
2018-05-09T04:10:27.851Z,10.27
2018-05-09T04:12:55.408Z,8.03
2018-05-09T04:15:22.939Z,6.63
2018-05-09T04:17:50.543Z,8.43
2018-05-09T04:20:18.089Z,7.63
2018-05-09T04:22:46.022Z,10.47
2018-05-09T04:25:13.605Z,11.63
2018-05-09T04:27:41.188Z,7.90
2018-05-09T04:30:08.779Z,6.50
2018-05-09T04:32:36.368Z,7.37
2018-05-09T04:35:03.951Z,9.20
2018-05-09T04:37:31.521Z,7.87
2018-05-09T04:39:59.103Z,7.70
2018-05-09T04:42:26.642Z,7.23
2018-05-09T04:44:54.242Z,8.63
2018-05-09T04:47:21.820Z,12.07
2018-05-09T04:49:49.392Z,8.17
2018-05-09T04:52:17.747Z,11.47
2018-05-09T04:54:45.373Z,6.60
2018-05-09T04:57:12.988Z,12.83
2018-05-09T04:59:41.314Z,13.20
2018-05-09T05:02:08.893Z,12.03
2018-05-09T05:04:36.449Z,7.77
2018-05-09T05:07:04.065Z,8.87
2018-05-09T05:09:31.581Z,9.50
2018-05-09T05:11:59.212Z,9.17
2018-05-09T05:14:26.827Z,13.77
2018-05-09T05:16:54.365Z,7.60
2018-05-09T05:19:22.042Z,8.70
2018-05-09T05:21:49.622Z,8.67
2018-05-09T05:24:17.250Z,9.73
2018-05-09T05:26:44.793Z,11.00
2018-05-09T05:29:12.384Z,11.63
2018-05-09T05:31:39.916Z,12.70
2018-05-09T05:34:07.494Z,14.33
2018-05-09T05:36:35.156Z,15.50
2018-05-09T05:39:02.743Z,10.43
2018-05-09T05:41:30.615Z,11.60
2018-05-09T05:43:58.190Z,10.50
2018-05-09T05:46:25.732Z,9.40
2018-05-09T05:48:53.394Z,12.20
2018-05-09T05:51:20.975Z,11.73
2018-05-09T05:53:48.601Z,11.47
2018-05-09T05:56:16.163Z,10.90
2018-05-09T05:58:43.842Z,17.80
2018-05-09T06:01:11.379Z,15.23
2018-05-09T06:03:38.944Z,21.23
2018-05-09T06:06:07.266Z,24.20
2018-05-09T06:08:34.860Z,18.80
2018-05-09T06:11:02.449Z,35.10
2018-05-09T06:13:30.053Z,28.00
2018-05-09T06:15:57.637Z,26.23
2018-05-09T06:18:25.178Z,14.93
2018-05-09T06:20:52.755Z,23.23
2018-05-09T06:23:20.416Z,17.23
2018-05-09T06:25:48.266Z,15.00
2018-05-09T06:28:15.836Z,16.47
2018-05-09T06:30:43.457Z,16.50
2018-05-09T06:33:11.785Z,15.30
2018-05-09T06:35:39.387Z,17.07
2018-05-09T06:38:06.976Z,15.83
2018-05-09T06:40:34.552Z,16.33
2018-05-09T06:43:02.079Z,11.37
2018-05-09T06:45:30.607Z,10.27
2018-05-09T06:47:58.209Z,12.30
2018-05-09T06:50:25.821Z,16.90
2018-05-09T06:52:53.411Z,14.13
2018-05-09T06:55:21.031Z,10.03
2018-05-09T06:57:48.640Z,11.97
2018-05-09T07:00:16.209Z,8.43
2018-05-09T07:02:44.223Z,9.47
2018-05-09T07:05:11.798Z,7.87
2018-05-09T07:07:39.356Z,7.33
2018-05-09T07:10:07.005Z,8.50
2018-05-09T07:12:34.654Z,7.60
2018-05-09T07:15:02.240Z,5.70
2018-05-09T07:17:29.800Z,9.93
2018-05-09T07:19:57.395Z,7.83
2018-05-09T07:22:26.266Z,7.27
2018-05-09T07:24:53.864Z,10.57
2018-05-09T07:27:21.646Z,4.80
2018-05-09T07:29:49.290Z,8.47
2018-05-09T07:32:16.863Z,5.70
2018-05-09T07:34:44.456Z,7.07
2018-05-09T07:37:12.080Z,6.03
2018-05-09T07:39:39.672Z,5.53
2018-05-09T07:42:07.338Z,10.80
2018-05-09T07:44:34.946Z,7.17
2018-05-09T07:47:02.572Z,8.70
2018-05-09T07:49:30.139Z,9.47
2018-05-09T07:51:57.756Z,8.30
2018-05-09T07:54:25.386Z,5.23
2018-05-09T07:56:52.974Z,8.73
2018-05-09T07:59:20.562Z,8.63
2018-05-09T08:01:48.122Z,9.27
2018-05-09T08:04:15.701Z,7.27
2018-05-09T08:06:43.415Z,8.33
2018-05-09T08:09:11.027Z,7.10
2018-05-09T08:11:38.635Z,8.50
2018-05-09T08:14:06.196Z,7.57
2018-05-09T08:16:33.828Z,8.13
2018-05-09T08:19:01.387Z,5.97
2018-05-09T08:21:29.032Z,6.97
2018-05-09T08:23:56.620Z,9.23
2018-05-09T08:26:24.247Z,14.07
2018-05-09T08:28:51.816Z,6.47
2018-05-09T08:31:19.361Z,6.70
2018-05-09T08:33:46.936Z,7.47
2018-05-09T08:36:14.572Z,6.70
2018-05-09T08:38:42.166Z,7.30
2018-05-09T08:41:09.764Z,7.27
2018-05-09T08:43:37.455Z,7.17
2018-05-09T08:46:05.137Z,5.80
2018-05-09T08:48:33.203Z,8.43
2018-05-09T08:51:00.784Z,5.73
2018-05-09T08:53:28.386Z,7.70
2018-05-09T08:55:55.943Z,6.67
2018-05-09T08:58:23.544Z,6.70
2018-05-09T09:00:51.148Z,9.77
2018-05-09T09:03:19.564Z,8.23
2018-05-09T09:05:47.153Z,7.77
2018-05-09T09:08:14.751Z,8.97
2018-05-09T09:10:43.194Z,10.93
2018-05-09T09:13:10.751Z,11.90
2018-05-09T09:15:38.356Z,7.27
2018-05-09T09:18:06.028Z,7.70
2018-05-09T09:20:33.668Z,4.90
2018-05-09T09:23:02.015Z,8.83
2018-05-09T09:25:29.706Z,26.90
2018-05-09T09:27:57.376Z,14.50
2018-05-09T09:30:25.007Z,6.70
2018-05-09T09:32:52.608Z,14.63
2018-05-09T09:35:20.226Z,5.80
2018-05-09T09:37:48.015Z,8.53
2018-05-09T09:40:17.268Z,6.50
2018-05-09T09:42:44.851Z,5.83
2018-05-09T09:45:12.424Z,8.43
2018-05-09T09:47:39.997Z,7.97
2018-05-09T09:50:08.396Z,9.77
2018-05-09T09:52:36.014Z,7.20
2018-05-09T09:55:03.683Z,22.13
2018-05-09T09:57:31.234Z,5.07
2018-05-09T09:59:59.579Z,6.20
2018-05-09T10:02:27.154Z,4.20
2018-05-09T10:04:54.955Z,7.13
2018-05-09T10:07:22.684Z,9.50
2018-05-09T10:09:50.388Z,4.40
2018-05-09T10:12:18.032Z,6.60
2018-05-09T10:14:45.658Z,7.27
2018-05-09T10:17:13.217Z,10.97
2018-05-09T10:19:40.826Z,5.80
2018-05-09T10:22:09.438Z,6.07
2018-05-09T10:24:37.023Z,4.60
2018-05-09T10:27:04.621Z,4.37
2018-05-09T10:29:32.204Z,5.20
2018-05-09T10:31:59.821Z,3.87
2018-05-09T10:34:27.370Z,5.17
2018-05-09T10:36:54.952Z,3.57
2018-05-09T10:39:22.498Z,4.90
2018-05-09T10:41:50.079Z,5.97
2018-05-09T10:44:18.636Z,5.47
2018-05-09T10:46:46.203Z,6.33
2018-05-09T10:49:13.801Z,7.87
2018-05-09T10:51:42.304Z,3.60
2018-05-09T10:54:10.622Z,3.60
2018-05-09T10:56:38.324Z,3.63
2018-05-09T10:59:06.652Z,3.67
2018-05-09T11:01:34.265Z,3.50
2018-05-09T11:04:01.829Z,4.53
2018-05-09T11:06:29.513Z,5.60
2018-05-09T11:08:57.149Z,5.30
2018-05-09T11:11:25.486Z,5.17
2018-05-09T11:13:53.087Z,6.27
2018-05-09T11:16:20.880Z,6.10
2018-05-09T11:18:48.467Z,20.63
2018-05-09T11:21:16.567Z,9.53
2018-05-09T11:23:44.219Z,5.00
2018-05-09T11:26:11.828Z,9.70
2018-05-09T11:28:40.129Z,7.27
2018-05-09T11:31:07.755Z,10.10
2018-05-09T11:33:35.340Z,5.47
2018-05-09T11:36:02.874Z,3.37
2018-05-09T11:38:31.287Z,6.10
2018-05-09T11:40:59.999Z,8.07
2018-05-09T11:43:27.590Z,4.03
2018-05-09T11:45:55.129Z,6.20
2018-05-09T11:48:22.896Z,9.20
2018-05-09T11:50:50.572Z,5.40
2018-05-09T11:53:18.289Z,6.10
2018-05-09T11:55:45.817Z,3.50
2018-05-09T11:58:14.155Z,4.47
2018-05-09T12:00:41.696Z,4.37
2018-05-09T12:03:09.313Z,8.10
2018-05-09T12:05:36.859Z,4.17
2018-05-09T12:08:05.309Z,6.03
2018-05-09T12:10:33.015Z,8.03
2018-05-09T12:13:00.458Z,4.53
2018-05-09T12:15:28.060Z,4.00
2018-05-09T12:18:00.693Z,4.67
2018-05-09T12:20:28.496Z,5.63
2018-05-09T12:22:56.046Z,3.10
2018-05-09T12:25:23.653Z,5.87
2018-05-09T12:27:51.459Z,7.00
2018-05-09T12:30:19.477Z,6.57
2018-05-09T12:32:47.083Z,4.60
2018-05-09T12:35:14.623Z,5.13
2018-05-09T12:37:42.250Z,4.43
2018-05-09T12:40:10.662Z,5.63
2018-05-09T12:42:38.210Z,7.83
2018-05-09T12:45:05.789Z,3.63
2018-05-09T12:47:33.392Z,4.80
2018-05-09T12:50:00.974Z,4.67
2018-05-09T12:52:28.530Z,3.17
2018-05-09T12:54:56.161Z,3.23
2018-05-09T12:57:24.495Z,8.17
2018-05-09T12:59:52.418Z,3.73
2018-05-09T13:02:20.080Z,5.37
2018-05-09T13:04:47.665Z,5.93
2018-05-09T13:07:15.447Z,5.03
2018-05-09T13:09:43.743Z,3.37
2018-05-09T13:12:11.324Z,4.23
2018-05-09T13:14:39.738Z,6.20
2018-05-09T13:17:07.336Z,6.90
2018-05-09T13:19:34.920Z,7.17
2018-05-09T13:22:02.551Z,10.73
2018-05-09T13:24:30.128Z,4.87
2018-05-09T13:26:57.841Z,3.80
2018-05-09T13:29:25.484Z,10.23
2018-05-09T13:31:53.097Z,6.67
2018-05-09T13:34:20.618Z,8.13
2018-05-09T13:36:48.188Z,6.53
2018-05-09T13:39:15.728Z,5.27
2018-05-09T13:41:43.420Z,8.43
2018-05-09T13:44:10.958Z,3.30
2018-05-09T13:46:38.597Z,4.40
2018-05-09T13:49:06.219Z,9.27
2018-05-09T13:51:33.825Z,6.30
2018-05-09T13:54:01.497Z,4.53
2018-05-09T13:56:29.326Z,3.70
2018-05-09T13:58:56.959Z,2.83
2018-05-09T14:01:24.502Z,3.93
2018-05-09T14:03:52.096Z,3.97
2018-05-09T14:06:19.701Z,3.33
2018-05-09T14:08:47.298Z,5.30
2018-05-09T14:11:14.885Z,5.53
2018-05-09T14:13:42.493Z,6.13
2018-05-09T14:16:10.090Z,5.60
2018-05-09T14:18:37.699Z,7.10
2018-05-09T14:21:05.582Z,3.77
2018-05-09T14:23:33.164Z,4.33
2018-05-09T14:26:01.553Z,3.33
2018-05-09T14:28:29.173Z,4.60
2018-05-09T14:30:56.785Z,3.43
2018-05-09T14:33:24.530Z,4.80
2018-05-09T14:35:52.085Z,4.43
2018-05-09T14:38:19.644Z,5.13
2018-05-09T14:40:47.280Z,4.23
2018-05-09T14:43:14.836Z,4.90
2018-05-09T14:45:43.551Z,6.20
2018-05-09T14:48:11.159Z,3.17
2018-05-09T14:50:38.747Z,5.53
2018-05-09T14:53:06.313Z,4.17
2018-05-09T14:55:33.877Z,3.67
2018-05-09T14:58:01.453Z,3.70
2018-05-09T15:00:29.108Z,3.57
2018-05-09T15:02:56.719Z,3.57
2018-05-09T15:05:24.338Z,3.77
2018-05-09T15:07:51.946Z,4.43
2018-05-09T15:10:20.785Z,7.63
2018-05-09T15:12:48.607Z,2.40
2018-05-09T15:15:16.933Z,5.53
2018-05-09T15:17:44.622Z,4.23
2018-05-09T15:20:12.254Z,7.67
2018-05-09T15:22:39.869Z,6.00
2018-05-09T15:25:08.239Z,4.73
2018-05-09T15:27:35.781Z,3.07
2018-05-09T15:30:03.372Z,2.63
2018-05-09T15:32:30.926Z,4.73
2018-05-09T15:34:58.549Z,2.40
2018-05-09T15:37:26.096Z,4.37
2018-05-09T15:39:53.693Z,5.53
2018-05-09T15:42:21.276Z,5.67
2018-05-09T15:44:48.835Z,7.17
2018-05-09T15:47:16.433Z,5.17
2018-05-09T15:49:43.984Z,6.27
2018-05-09T15:52:11.596Z,5.23
2018-05-09T15:54:39.322Z,3.03
2018-05-09T15:57:07.002Z,2.50
2018-05-09T15:59:34.595Z,4.87
2018-05-09T16:02:03.028Z,4.23
2018-05-09T16:04:30.636Z,2.60
2018-05-09T16:06:58.312Z,4.50
2018-05-09T16:09:25.866Z,4.20
2018-05-09T16:11:53.444Z,2.53
2018-05-09T16:14:21.035Z,3.47
2018-05-09T16:16:48.649Z,5.10
2018-05-09T16:19:17.042Z,5.43
2018-05-09T16:21:44.586Z,4.73
2018-05-09T16:24:12.320Z,5.43
2018-05-09T16:26:39.924Z,5.60
2018-05-09T16:29:07.483Z,5.03
2018-05-09T16:31:35.075Z,3.13
2018-05-09T16:34:02.645Z,3.10
2018-05-09T16:36:30.935Z,3.80
2018-05-09T16:38:58.593Z,7.00
2018-05-09T16:41:26.201Z,3.50
2018-05-09T16:43:53.802Z,3.53
2018-05-09T16:46:21.532Z,2.50
2018-05-09T16:48:49.124Z,5.03
2018-05-09T16:51:16.680Z,3.67
2018-05-09T16:53:44.272Z,4.80
2018-05-09T16:56:11.876Z,5.20
2018-05-09T16:58:39.417Z,3.33
2018-05-09T17:01:07.831Z,4.23
2018-05-09T17:03:35.437Z,6.00
2018-05-09T17:06:02.980Z,3.03
2018-05-09T17:08:30.606Z,6.10
2018-05-09T17:10:58.287Z,2.77
2018-05-09T17:13:25.955Z,3.83
2018-05-09T17:15:53.579Z,6.33
2018-05-09T17:18:21.151Z,4.03
2018-05-09T17:20:48.756Z,4.33
2018-05-09T17:23:16.292Z,2.97
2018-05-09T17:25:43.854Z,3.33
2018-05-09T17:28:11.410Z,5.00
2018-05-09T17:30:38.993Z,3.13
2018-05-09T17:33:06.549Z,3.40
2018-05-09T17:35:34.174Z,3.17
2018-05-09T17:38:01.732Z,7.30
2018-05-09T17:40:29.342Z,4.73
2018-05-09T17:42:56.890Z,3.30
2018-05-09T17:45:25.284Z,4.03
2018-05-09T17:47:52.922Z,3.57
2018-05-09T17:50:20.456Z,7.47
2018-05-09T17:52:48.020Z,2.63
2018-05-09T17:55:15.560Z,4.70
2018-05-09T17:57:43.163Z,7.40
2018-05-09T18:00:10.720Z,5.80
2018-05-09T18:02:38.266Z,2.60
2018-05-09T18:05:05.947Z,3.20
2018-05-09T18:07:33.481Z,7.10
2018-05-09T18:10:01.084Z,4.67
2018-05-09T18:12:28.623Z,6.70
2018-05-09T18:14:56.257Z,6.87
2018-05-09T18:17:23.812Z,7.33
2018-05-09T18:19:51.358Z,9.43
2018-05-09T18:22:19.147Z,3.80
2018-05-09T18:24:46.731Z,4.10
2018-05-09T18:27:14.306Z,3.17
2018-05-09T18:29:41.900Z,3.30
2018-05-09T18:32:09.749Z,5.67
2018-05-09T18:34:37.325Z,4.83
2018-05-09T18:37:05.672Z,4.33
2018-05-09T18:39:33.219Z,5.73
2018-05-09T18:42:00.789Z,3.40
2018-05-09T18:44:28.363Z,3.07
2018-05-09T18:46:56.701Z,6.77
2018-05-09T18:49:24.246Z,3.23
2018-05-09T18:51:51.846Z,7.10
2018-05-09T18:54:19.409Z,3.57
2018-05-09T18:56:47.040Z,5.67
2018-05-09T18:59:14.590Z,5.43
2018-05-09T19:01:42.149Z,3.60
2018-05-09T19:04:09.745Z,6.50
2018-05-09T19:06:37.321Z,4.03
2018-05-09T19:09:04.887Z,8.43
2018-05-09T19:11:32.417Z,7.23
2018-05-09T19:14:00.001Z,6.80
2018-05-09T19:16:27.594Z,5.60
2018-05-09T19:18:55.091Z,8.83
2018-05-09T19:21:22.660Z,4.33
2018-05-09T19:23:50.229Z,3.93
2018-05-09T19:26:17.845Z,6.13
2018-05-09T19:28:45.482Z,4.73
2018-05-09T19:31:13.954Z,6.70
2018-05-09T19:33:41.530Z,5.43
2018-05-09T19:36:09.075Z,7.13
2018-05-09T19:38:37.516Z,5.50
2018-05-09T19:41:05.032Z,4.10
2018-05-09T19:43:32.619Z,7.13
2018-05-09T19:46:00.141Z,6.80
2018-05-09T19:48:28.524Z,5.80
2018-05-09T19:50:56.854Z,5.87
2018-05-09T19:53:24.428Z,4.57
2018-05-09T19:55:52.066Z,7.23
2018-05-09T19:58:19.704Z,4.97
2018-05-09T20:00:47.535Z,6.00
2018-05-09T20:03:16.140Z,8.40
2018-05-09T20:05:43.699Z,5.33
2018-05-09T20:08:11.988Z,5.33
2018-05-09T20:10:39.548Z,4.33
2018-05-09T20:13:07.096Z,4.37
2018-05-09T20:15:34.702Z,4.63
2018-05-09T20:18:02.326Z,14.47
2018-05-09T20:20:31.136Z,6.70
2018-05-09T20:22:58.904Z,5.90
2018-05-09T20:25:26.516Z,7.77
2018-05-09T20:27:54.119Z,6.67
2018-05-09T20:30:27.310Z,6.47
2018-05-09T20:32:54.918Z,8.77
2018-05-09T20:35:22.518Z,10.23
2018-05-09T20:37:50.079Z,9.53
2018-05-09T20:40:17.620Z,6.00
2018-05-09T20:42:45.925Z,7.57
2018-05-09T20:45:13.532Z,10.73
2018-05-09T20:47:41.078Z,10.10
2018-05-09T20:50:08.680Z,7.13
2018-05-09T20:52:36.987Z,14.10
2018-05-09T20:58:07.468Z,8.70
2018-05-09T21:00:35.104Z,10.97
2018-05-09T21:03:02.709Z,9.40
2018-05-09T21:05:30.263Z,14.63
2018-05-09T21:07:57.805Z,16.20
2018-05-09T21:10:25.357Z,10.83
2018-05-09T21:12:52.893Z,7.90
2018-05-09T21:15:20.474Z,8.70
2018-05-09T21:17:48.056Z,14.23
2018-05-09T21:20:15.664Z,14.30
2018-05-09T21:22:43.189Z,8.73
2018-05-09T21:25:10.763Z,8.67
2018-05-09T21:27:38.752Z,8.53
2018-05-09T21:30:06.433Z,9.67
2018-05-09T21:32:34.656Z,9.17
2018-05-09T21:35:02.312Z,9.43
2018-05-09T21:37:29.800Z,10.27
2018-05-09T21:39:57.371Z,13.90
2018-05-09T21:42:24.935Z,9.93
2018-05-09T21:44:52.485Z,11.60
2018-05-09T21:47:20.097Z,8.77
2018-05-09T21:49:47.712Z,7.37
2018-05-09T21:52:15.550Z,7.87
2018-05-09T21:54:43.128Z,13.87
2018-05-09T21:57:11.474Z,7.20
2018-05-09T21:59:39.019Z,6.87
2018-05-09T22:02:06.595Z,6.10
2018-05-09T22:04:34.186Z,5.77
2018-05-09T22:07:02.535Z,8.67
2018-05-09T22:09:30.345Z,10.00
2018-05-09T22:11:57.890Z,9.90
2018-05-09T22:14:25.478Z,8.23
2018-05-09T22:16:53.067Z,10.53
2018-05-09T22:19:20.629Z,10.77
2018-05-09T22:21:48.190Z,8.50
2018-05-09T22:24:15.744Z,6.23
2018-05-09T22:26:43.291Z,6.60
2018-05-09T22:29:10.861Z,5.53
2018-05-09T22:31:38.444Z,10.40
2018-05-09T22:34:06.121Z,6.13
2018-05-09T22:36:34.454Z,6.90
2018-05-09T22:39:02.080Z,6.57
2018-05-09T22:41:29.621Z,8.17
2018-05-09T22:43:57.196Z,6.70
2018-05-09T22:46:24.808Z,8.87
2018-05-09T22:48:53.141Z,6.93
2018-05-09T22:51:20.703Z,8.27
2018-05-09T22:53:48.264Z,7.90
2018-05-09T22:56:15.825Z,5.90
2018-05-09T22:58:43.416Z,8.00
2018-05-09T23:01:11.007Z,6.93
2018-05-09T23:03:38.538Z,6.47
2018-05-09T23:06:06.060Z,8.40
2018-05-09T23:08:33.657Z,5.07
2018-05-09T23:11:01.204Z,5.63
2018-05-09T23:13:28.778Z,6.00
2018-05-09T23:15:56.370Z,5.70
2018-05-09T23:18:24.827Z,5.03
2018-05-09T23:20:52.383Z,5.77
2018-05-09T23:23:19.973Z,8.63
2018-05-09T23:25:47.511Z,6.03
2018-05-09T23:28:15.871Z,8.30
2018-05-09T23:30:43.450Z,6.83
2018-05-09T23:33:11.334Z,7.67
2018-05-09T23:35:38.879Z,10.93
2018-05-09T23:38:06.437Z,5.93
2018-05-09T23:40:33.992Z,8.33
2018-05-09T23:43:01.569Z,7.33
2018-05-09T23:45:29.168Z,7.67
2018-05-09T23:47:56.694Z,8.10
2018-05-09T23:50:24.288Z,5.37
2018-05-09T23:52:51.823Z,7.83
2018-05-09T23:55:20.185Z,5.37
2018-05-09T23:57:47.772Z,6.90
